Detalii statie MOLDOVA TIGANASI [00001D08]

Toti senzorii

Date Temperatura solului [C]Precipitatii [mm]Voltaj baterie [mV]Leaf Wetness [Min]HC Air temperature [C]HC Relative humidity [%]Punctul de roua [C]
medieminmaxsumaultimatimpmedieminmaxmediemediemin
2018-06-20 10:00:00 26 25.3 26.9 0 7352 28.03 27.07 29.1 0 0 0
2018-06-20 11:00:00 27.7 26.9 28.4 0 7342 28.91 28.39 29.86 0 0 0
2018-06-20 12:00:00 29.1 28.6 29.7 0 7352 29.34 29.1 29.79 0 0 0
2018-06-20 13:00:00 29.8 29.5 30 0 7342 29.11 27.39 29.9 0 0 0
2018-06-20 14:00:00 30.1 30 30.3 0 7352 29.27 28 29.9 0 0 0
2018-06-20 15:00:00 30.4 30.3 30.6 0 7352 29.58 29.13 30.06 0 0 0
2018-06-20 16:00:00 30.2 30 30.6 0 7342 29.26 28.7 29.77 0 0 0
2018-06-20 17:00:00 29.7 29.3 30 0 7342 28.48 27.55 29.19 0 0 0
2018-06-20 18:00:00 28.7 28.2 29.2 0 7274 28.07 27.56 28.72 0 0 0
2018-06-20 19:00:00 27.6 27.2 28.2 0 7342 26.61 25.47 27.43 0 0 0
2018-06-20 20:00:00 26.6 26.1 27.1 0 7118 24.75 24.2 25.4 7.7 0
2018-06-20 21:00:00 25.6 25.2 26.1 0 7080 23.81 23.19 24.2 0 0 0
2018-06-20 22:00:00 24.5 24.1 24.9 0 7040 22.48 21.85 23.06 0 0 0
2018-06-20 23:00:00 23.9 23.6 24.2 0 7010 21.02 20.62 21.62 0 0 0
2018-06-21 00:00:00 23.3 23.1 23.5 0 6992 20.35 19.78 20.9 0 0 0
2018-06-21 01:00:00 22.8 22.5 23.1 0 6962 20.74 19.97 21.28 0 0 0
2018-06-21 02:00:00 22.4 22.4 22.6 0 6962 20.34 19.74 20.77 0 0 0
2018-06-21 03:00:00 22.2 22.1 22.4 0 6962 19.74 19.15 20.61 0 0 0
2018-06-21 04:00:00 21.9 21.9 22.1 0 6932 19.41 19.23 19.76 0 0 0
2018-06-21 05:00:00 21.8 21.7 22 0 6932 19.95 19.53 20.53 0 0 0
2018-06-21 06:00:00 21.9 21.9 22.1 0 7030 21.09 20.55 22.25 0 0 0
2018-06-21 07:00:00 22.2 22 22.6 0 7284 22.13 21.34 23.23 0 0 0
2018-06-21 08:00:00 22.8 22.4 23.2 0 7342 23.87 23.18 24.67 0 0 0
2018-06-21 09:00:00 23.7 23.3 24.3 0 7352 25.59 24.48 26.98 0 0 0
2018-06-21 10:00:00 25.3 24.4 26.2 0 7352 28.07 27.07 29.18 0 0 0
2018-06-21 11:00:00 27.1 26.3 27.9 0 7342 28.95 27.43 30.11 0 0 0
2018-06-21 12:00:00 28.3 28 28.6 0 7342 28.65 26.88 30.07 5.76 0
2018-06-21 13:00:00 29.3 28.8 29.9 0 7342 30.25 29.26 31.56 0 0 0
2018-06-21 14:00:00 30 30 30.2 0 7342 30.06 27.8 31.3 0 0 0
2018-06-21 15:00:00 30.4 30.2 30.8 0 7342 31.16 30.02 32.37 0 0 0
2018-06-21 16:00:00 30.6 30.4 30.8 0 7342 30.53 29.44 31.6 0 0 0
2018-06-21 17:00:00 30.2 30 30.4 0 7254 30.27 29.98 31.03 7.37 2.8 0
2018-06-21 18:00:00 29.5 29.2 29.9 0 7226 30.17 29.68 31.36 19.48 0
2018-06-21 19:00:00 28.7 28.2 29.2 0 7236 29.23 27.89 30.15 27.06 0
2018-06-21 20:00:00 27.7 27.3 28.2 0 7060 26.65 25.75 27.58 7.55 2.3 0
2018-06-21 21:00:00 26.8 26.5 27.4 0 7030 24.94 23.93 25.61 12.22 0
2018-06-21 22:00:00 25.9 25.5 26.3 0 6942 22.45 21.08 23.58 46.32 0
2018-06-21 23:00:00 25.1 24.8 25.6 0 6942 21.24 20.81 21.65 6.6 1.1 0
2018-06-22 00:00:00 24.3 24.1 24.6 0 6962 20.58 20.19 20.86 0 0 0
2018-06-22 01:00:00 23.8 23.6 24.1 0 6932 20.42 20.01 20.91 3.37 0
2018-06-22 02:00:00 23.3 23 23.6 0 6922 19.45 19.01 19.85 21.98 3.2 0
2018-06-22 03:00:00 22.8 22.6 23 0 6922 18.89 18.58 19.13 0 0 0
2018-06-22 04:00:00 22.4 22.3 22.8 0 6904 18.25 17.7 18.46 6.56 0.6 0
2018-06-22 05:00:00 22 21.9 22.3 0 6904 18.44 18.07 19.09 64.09 11.8 0
2018-06-22 06:00:00 21.7 21.5 22 0 6932 19.53 18.94 20.86 94.09 18.2 11.7
2018-06-22 07:00:00 22.2 21.9 22.6 0 7070 22.36 21.3 23.4 84.75 19.3 12.7
2018-06-22 08:00:00 23.2 22.7 23.8 0 7206 24.71 23.49 25.62 97.47 24.2 20
2018-06-22 09:00:00 24.6 24 25.4 0 7352 27.15 26.56 28.03 100 27.1 26.5